createdAt,value
2023-05-09T00:07:59.519Z,12.40
2023-05-09T00:18:12.636Z,11.30
2023-05-09T00:28:25.520Z,13.60
2023-05-09T00:38:38.505Z,12.70
2023-05-09T00:48:51.517Z,11.40
2023-05-09T00:59:11.555Z,10.30
2023-05-09T01:09:33.546Z,10.90
2023-05-09T01:20:13.558Z,11.40
2023-05-09T01:30:26.532Z,10.70
2023-05-09T01:40:39.570Z,12.05
2023-05-09T01:50:53.571Z,12.20
2023-05-09T02:01:07.644Z,13.10
2023-05-09T02:11:27.572Z,17.50
2023-05-09T02:21:40.585Z,16.70
2023-05-09T02:31:54.617Z,15.50
2023-05-09T02:42:16.613Z,16.00
2023-05-09T02:52:29.597Z,13.50
2023-05-09T03:02:42.663Z,12.90
2023-05-09T03:12:55.641Z,14.50
2023-05-09T04:14:29.698Z,16.00
2023-05-09T04:24:41.645Z,14.05
2023-05-09T04:34:54.680Z,14.80
2023-05-09T04:45:08.656Z,13.40
2023-05-09T04:55:21.704Z,12.70
2023-05-09T05:05:36.965Z,11.70
2023-05-09T05:15:50.761Z,11.30
2023-05-09T05:26:03.692Z,11.20
2023-05-09T05:36:16.704Z,10.20
2023-05-09T05:46:29.723Z,10.60
2023-05-09T05:56:42.732Z,11.60
2023-05-09T06:06:55.707Z,10.80
2023-05-09T06:17:15.810Z,10.50
2023-05-09T06:27:28.733Z,11.10
2023-05-09T06:37:42.756Z,9.80
2023-05-09T06:47:55.784Z,9.70
2023-05-09T06:58:08.799Z,9.00
2023-05-09T07:08:21.739Z,9.50
2023-05-09T07:18:34.849Z,7.80
2023-05-09T07:28:47.772Z,8.80
2023-05-09T07:39:07.828Z,8.90
2023-05-09T07:49:20.797Z,8.30
2023-05-09T07:59:33.826Z,7.80
2023-05-09T08:09:46.788Z,7.30
2023-05-09T08:19:59.830Z,6.00
2023-05-09T08:30:13.995Z,6.40
2023-05-09T08:40:26.833Z,6.10
2023-05-09T08:50:39.819Z,6.20
2023-05-09T09:00:52.888Z,7.10
2023-05-09T09:11:12.832Z,8.00
2023-05-09T09:21:26.882Z,6.90
2023-05-09T09:31:40.900Z,7.20
2023-05-09T09:41:53.888Z,7.20
2023-05-09T09:52:06.876Z,6.80
2023-05-09T10:02:19.863Z,5.60
2023-05-09T10:12:42.982Z,5.30
2023-05-09T10:22:56.901Z,4.80
2023-05-09T10:33:16.946Z,5.20
2023-05-09T10:43:32.244Z,4.90
2023-05-09T10:53:56.968Z,4.80
2023-05-09T11:04:16.952Z,4.90
2023-05-09T11:14:52.980Z,5.40
2023-05-09T11:25:20.976Z,4.50
2023-05-09T11:35:36.958Z,4.90
2023-05-09T11:45:50.057Z,4.90
2023-05-09T11:56:02.986Z,3.70
2023-05-09T12:06:16.981Z,4.10
2023-05-09T12:16:30.043Z,4.30
2023-05-09T12:26:42.975Z,4.10
2023-05-09T12:36:59.010Z,4.80
2023-05-09T12:47:12.998Z,3.80
2023-05-09T12:57:35.055Z,4.50
2023-05-09T13:07:55.011Z,4.60
2023-05-09T13:18:08.059Z,3.90
2023-05-09T13:28:21.062Z,4.00
2023-05-09T13:38:34.035Z,4.20
2023-05-09T13:48:47.080Z,4.00
2023-05-09T13:59:00.103Z,4.20
2023-05-09T14:09:21.058Z,4.40
2023-05-09T14:19:38.095Z,4.20
2023-05-09T14:29:51.124Z,4.80
2023-05-09T14:40:04.111Z,4.00
2023-05-09T14:50:19.084Z,3.80
2023-05-09T15:00:33.120Z,4.10
2023-05-09T15:10:53.089Z,4.70
2023-05-09T15:21:06.133Z,4.00
2023-05-09T15:31:19.183Z,4.20
2023-05-09T15:41:32.127Z,4.10
2023-05-09T15:51:45.132Z,5.00
2023-05-09T16:01:58.410Z,3.70
2023-05-09T16:12:18.175Z,4.10
2023-05-09T16:22:31.144Z,4.50
2023-05-09T16:32:44.210Z,4.20
2023-05-09T16:42:57.216Z,4.30
2023-05-09T17:02:23.001Z,4.40
2023-05-09T17:12:29.715Z,4.10
2023-05-09T17:22:37.123Z,4.10
2023-05-09T17:32:44.149Z,4.10
2023-05-09T17:42:49.906Z,4.25
2023-05-09T17:52:57.028Z,4.40
2023-05-09T18:03:22.272Z,5.00
2023-05-09T18:13:28.860Z,4.40
2023-05-09T18:23:35.471Z,5.50
2023-05-09T18:33:42.072Z,4.80
2023-05-09T18:43:48.594Z,5.70
2023-05-09T18:53:55.157Z,5.10
2023-05-09T19:04:03.167Z,5.50
2023-05-09T19:14:09.645Z,5.40
2023-05-09T19:24:16.142Z,5.60
2023-05-09T19:34:23.062Z,5.90
2023-05-09T19:44:29.545Z,6.30
2023-05-09T19:54:36.062Z,6.30
2023-05-09T20:04:47.916Z,6.80
2023-05-09T20:14:54.402Z,6.00
2023-05-09T20:25:01.030Z,6.30
2023-05-09T20:35:07.782Z,6.90
2023-05-09T20:45:14.279Z,8.20
2023-05-09T20:55:20.904Z,6.50
2023-05-09T21:05:27.507Z,6.40
2023-05-09T21:15:34.163Z,6.70
2023-05-09T21:25:41.028Z,6.80
2023-05-09T21:35:48.504Z,6.40
2023-05-09T21:45:56.840Z,7.10
2023-05-09T21:56:03.630Z,7.00
2023-05-09T22:06:10.308Z,6.80
2023-05-09T22:16:16.837Z,7.60
2023-05-09T22:26:23.627Z,7.50
2023-05-09T22:36:30.147Z,9.40
2023-05-09T22:46:36.728Z,7.50
2023-05-09T22:56:44.459Z,7.70
2023-05-09T23:06:51.310Z,8.20
2023-05-09T23:16:58.093Z,7.80
2023-05-09T23:27:04.603Z,7.90
2023-05-09T23:37:11.162Z,8.40
2023-05-09T23:47:18.147Z,8.80
2023-05-09T23:57:24.640Z,8.70
